createdAt,value
2022-11-15T00:00:19.116Z,22.50
2022-11-15T00:03:04.539Z,10.75
2022-11-15T00:05:50.756Z,9.25
2022-11-15T00:08:36.796Z,10.00
2022-11-15T00:11:22.318Z,7.75
2022-11-15T00:14:08.558Z,6.75
2022-11-15T00:16:56.390Z,6.25
2022-11-15T00:19:42.149Z,5.25
2022-11-15T00:22:33.119Z,3.50
2022-11-15T00:25:19.837Z,4.75
2022-11-15T00:28:05.483Z,5.50
2022-11-15T00:30:51.461Z,5.25
2022-11-15T00:33:39.205Z,3.75
2022-11-15T00:36:25.092Z,6.25
2022-11-15T00:39:11.174Z,6.00
2022-11-15T00:41:56.817Z,5.00
2022-11-15T00:44:42.044Z,5.25
2022-11-15T00:47:27.347Z,8.50
2022-11-15T00:50:15.619Z,14.00
2022-11-15T00:53:01.444Z,7.75
2022-11-15T00:55:47.417Z,4.50
2022-11-15T00:58:33.130Z,4.75
2022-11-15T01:01:18.901Z,4.00
2022-11-15T01:04:05.098Z,4.00
2022-11-15T01:06:52.349Z,3.25
2022-11-15T01:09:38.234Z,3.00
2022-11-15T01:12:24.126Z,4.00
2022-11-15T01:15:09.640Z,12.75
2022-11-15T01:17:55.727Z,12.75
2022-11-15T01:20:42.762Z,14.75
2022-11-15T01:23:30.183Z,13.50
2022-11-15T01:26:17.129Z,12.00
2022-11-15T01:29:03.477Z,17.50
2022-11-15T01:31:49.083Z,13.50
2022-11-15T01:34:34.860Z,4.00
2022-11-15T01:37:20.189Z,5.00
2022-11-15T01:40:08.433Z,5.00
2022-11-15T01:42:53.781Z,3.50
2022-11-15T01:45:39.800Z,5.50
2022-11-15T01:48:33.289Z,5.00
2022-11-15T01:51:23.510Z,6.25
2022-11-15T01:54:16.551Z,5.25
2022-11-15T01:57:11.310Z,6.75
2022-11-15T01:59:59.272Z,2.50
2022-11-15T02:02:45.309Z,5.00
2022-11-15T02:05:32.415Z,5.50
2022-11-15T02:08:18.531Z,4.25
2022-11-15T02:11:08.009Z,4.25
2022-11-15T02:13:56.559Z,5.75
2022-11-15T02:16:59.561Z,5.75
2022-11-15T02:20:41.722Z,5.75
2022-11-15T02:24:17.097Z,6.00
2022-11-15T02:27:48.378Z,6.00
2022-11-15T02:30:45.551Z,5.75
2022-11-15T02:33:47.105Z,5.00
2022-11-15T02:36:44.548Z,3.75
2022-11-15T02:39:43.153Z,5.50
2022-11-15T02:42:36.226Z,4.75
2022-11-15T02:45:31.271Z,6.00
2022-11-15T02:48:19.302Z,4.00
2022-11-15T02:51:07.083Z,6.50
2022-11-15T02:53:52.584Z,7.50
2022-11-15T02:56:38.448Z,5.25
2022-11-15T03:00:01.810Z,6.25
2022-11-15T03:03:32.503Z,7.25
2022-11-15T03:06:36.174Z,5.50
2022-11-15T03:09:35.996Z,7.00
2022-11-15T03:12:35.430Z,6.50
2022-11-15T03:15:29.421Z,5.75
2022-11-15T03:18:23.086Z,4.50
2022-11-15T03:21:13.404Z,6.75
2022-11-15T03:24:08.456Z,4.00
2022-11-15T03:26:56.539Z,4.25
2022-11-15T03:29:49.222Z,6.25
2022-11-15T03:32:40.812Z,5.00
2022-11-15T03:35:32.128Z,8.50
2022-11-15T03:38:23.829Z,7.50
2022-11-15T03:41:23.120Z,6.50
2022-11-15T03:44:18.493Z,3.00
2022-11-15T03:47:10.747Z,7.00
2022-11-15T03:50:03.689Z,7.25
2022-11-15T03:52:51.632Z,9.25
2022-11-15T03:55:37.994Z,5.25
2022-11-15T03:58:24.925Z,7.50
2022-11-15T04:01:10.838Z,3.00
2022-11-15T04:03:56.080Z,5.25
2022-11-15T04:06:41.718Z,5.25
2022-11-15T04:09:27.341Z,5.75
2022-11-15T04:12:12.839Z,4.75
2022-11-15T04:15:02.520Z,5.75
2022-11-15T04:17:51.158Z,5.75
2022-11-15T04:20:36.310Z,7.00
2022-11-15T04:23:23.872Z,4.50
2022-11-15T04:26:15.359Z,4.50
2022-11-15T04:29:00.808Z,4.00
2022-11-15T04:31:48.282Z,4.25
2022-11-15T04:34:34.093Z,6.00
2022-11-15T04:37:20.011Z,4.00
2022-11-15T04:40:07.871Z,4.00
2022-11-15T04:42:53.538Z,4.00
2022-11-15T04:45:39.242Z,3.25
2022-11-15T04:48:26.566Z,5.50
2022-11-15T04:51:12.526Z,5.00
2022-11-15T04:53:58.261Z,4.50
2022-11-15T04:56:43.452Z,3.00
2022-11-15T04:59:29.288Z,3.75
2022-11-15T05:02:14.668Z,19.00
2022-11-15T05:05:01.668Z,11.50
2022-11-15T05:07:47.350Z,8.50
2022-11-15T05:10:32.762Z,7.75
2022-11-15T05:13:18.735Z,6.50
2022-11-15T05:16:04.751Z,6.25
2022-11-15T05:18:52.394Z,6.25
2022-11-15T05:21:39.960Z,6.00
2022-11-15T05:24:25.781Z,7.00
2022-11-15T05:27:11.328Z,4.75
2022-11-15T05:29:57.410Z,6.75
2022-11-15T05:32:43.933Z,6.50
2022-11-15T05:35:37.869Z,7.75
2022-11-15T05:38:27.553Z,6.25
2022-11-15T05:41:22.758Z,9.00
2022-11-15T05:44:14.516Z,8.25
2022-11-15T05:47:08.425Z,9.00
2022-11-15T05:49:55.411Z,5.50
2022-11-15T05:52:46.465Z,6.00
2022-11-15T05:55:33.677Z,6.00
2022-11-15T05:58:21.657Z,4.75
2022-11-15T06:01:07.752Z,4.25
2022-11-15T06:03:57.002Z,8.25
2022-11-15T06:06:56.065Z,7.75
2022-11-15T06:10:25.323Z,5.50
2022-11-15T06:13:11.939Z,7.25
2022-11-15T06:15:57.374Z,6.75
2022-11-15T06:18:48.581Z,3.00
2022-11-15T06:21:34.373Z,4.50
2022-11-15T06:24:39.832Z,18.00
2022-11-15T06:27:44.752Z,13.00
2022-11-15T06:30:57.573Z,9.25
2022-11-15T06:33:43.796Z,7.50
2022-11-15T06:36:31.429Z,8.00
2022-11-15T06:39:23.452Z,8.75
2022-11-15T06:42:09.914Z,10.25
2022-11-15T06:44:55.963Z,8.00
2022-11-15T06:47:47.726Z,7.25
2022-11-15T06:50:33.980Z,6.00
2022-11-15T06:53:20.375Z,6.00
2022-11-15T06:56:08.046Z,8.00
2022-11-15T06:58:54.103Z,4.50
2022-11-15T07:01:39.459Z,4.75
2022-11-15T07:04:26.835Z,9.75
2022-11-15T07:07:12.545Z,5.67
2022-11-15T07:10:04.294Z,5.33
2022-11-15T07:12:49.656Z,6.33
2022-11-15T07:15:35.260Z,6.33
2022-11-15T07:18:22.105Z,6.67
2022-11-15T07:21:11.291Z,3.67
2022-11-15T07:23:56.827Z,5.00
2022-11-15T07:26:48.468Z,5.33
2022-11-15T07:29:34.147Z,6.50
2022-11-15T07:32:19.563Z,4.75
2022-11-15T07:35:06.739Z,4.25
2022-11-15T07:37:58.481Z,4.00
2022-11-15T07:40:44.193Z,4.75
2022-11-15T07:43:30.721Z,5.00
2022-11-15T07:46:16.568Z,4.25
2022-11-15T07:49:02.632Z,5.75
2022-11-15T07:51:48.149Z,5.25
2022-11-15T07:54:35.008Z,5.00
2022-11-15T07:57:20.325Z,5.00
2022-11-15T08:00:08.773Z,4.50
2022-11-15T08:03:02.415Z,5.25
2022-11-15T08:05:52.349Z,5.00
2022-11-15T08:08:38.115Z,5.00
2022-11-15T08:11:26.232Z,6.75
2022-11-15T08:14:11.802Z,5.00
2022-11-15T08:16:57.887Z,5.50
2022-11-15T08:19:43.729Z,5.25
2022-11-15T08:22:30.179Z,4.00
2022-11-15T08:25:16.580Z,5.00
2022-11-15T08:28:06.657Z,5.00
2022-11-15T08:30:54.565Z,3.50
2022-11-15T08:33:40.111Z,5.00
2022-11-15T08:36:25.965Z,5.25
2022-11-15T08:39:12.084Z,5.25
2022-11-15T08:41:57.460Z,4.00
2022-11-15T08:44:46.568Z,5.00
2022-11-15T08:47:32.089Z,5.00
2022-11-15T08:50:18.028Z,5.00
2022-11-15T08:53:07.307Z,5.50
2022-11-15T08:55:52.472Z,5.50
2022-11-15T08:58:39.155Z,6.25
2022-11-15T09:01:26.014Z,6.50
2022-11-15T09:04:11.457Z,6.75
2022-11-15T09:06:57.036Z,6.00
2022-11-15T09:09:42.723Z,6.00
2022-11-15T09:12:34.299Z,5.00
2022-11-15T09:15:20.134Z,5.25
2022-11-15T09:18:07.120Z,5.25
2022-11-15T09:20:52.756Z,3.75
2022-11-15T09:23:38.976Z,4.50
2022-11-15T09:26:24.785Z,5.00
2022-11-15T09:29:10.334Z,4.00
2022-11-15T09:31:55.873Z,5.00
2022-11-15T09:34:42.776Z,5.00
2022-11-15T09:37:30.568Z,3.00
2022-11-15T09:40:19.686Z,4.00
2022-11-15T09:43:29.307Z,2.75
2022-11-15T09:46:31.043Z,4.00
2022-11-15T09:49:23.012Z,4.25
2022-11-15T09:52:21.315Z,3.00
2022-11-15T09:54:54.766Z,3.75
2022-11-15T09:57:33.330Z,3.00
2022-11-15T10:03:13.689Z,3.00
2022-11-15T10:05:44.041Z,4.00
2022-11-15T10:08:45.724Z,5.00
2022-11-15T10:11:38.604Z,1.50
2022-11-15T10:14:14.917Z,2.75
2022-11-15T10:17:22.156Z,3.25
2022-11-15T10:20:05.970Z,2.50
2022-11-15T10:22:45.311Z,3.00
2022-11-15T10:25:22.107Z,3.25
2022-11-15T10:27:56.738Z,3.50
2022-11-15T10:30:30.645Z,4.50
2022-11-15T10:32:57.441Z,3.25
2022-11-15T10:35:28.917Z,9.00
2022-11-15T10:38:07.771Z,4.00
2022-11-15T10:40:38.250Z,4.75
2022-11-15T10:43:16.359Z,2.75
2022-11-15T10:45:44.463Z,3.00
2022-11-15T10:48:25.885Z,2.00
2022-11-15T10:50:55.717Z,3.00
2022-11-15T10:53:30.285Z,3.25
2022-11-15T10:56:04.910Z,3.00
2022-11-15T10:58:38.098Z,3.00
2022-11-15T11:01:28.190Z,0.50
2022-11-15T11:04:01.513Z,3.75
2022-11-15T11:06:29.818Z,1.00
2022-11-15T11:09:00.235Z,4.00
2022-11-15T11:11:46.581Z,3.75
2022-11-15T11:14:19.639Z,6.00
2022-11-15T11:16:52.049Z,5.75
2022-11-15T11:19:37.603Z,8.25
2022-11-15T11:22:17.471Z,6.75
2022-11-15T11:24:59.975Z,6.00
2022-11-15T11:27:44.202Z,6.25
2022-11-15T11:30:19.349Z,5.50
2022-11-15T11:33:05.097Z,7.25
2022-11-15T11:35:51.307Z,5.00
2022-11-15T11:38:46.531Z,6.00
2022-11-15T11:41:32.169Z,6.50
2022-11-15T11:44:19.603Z,6.25
2022-11-15T11:46:55.966Z,6.25
2022-11-15T11:49:36.042Z,5.75
2022-11-15T11:52:12.892Z,5.00
2022-11-15T11:54:56.901Z,4.50
2022-11-15T11:57:39.191Z,4.00
2022-11-15T12:00:20.545Z,4.75
2022-11-15T12:03:08.595Z,4.00
2022-11-15T12:05:40.426Z,4.50
2022-11-15T12:08:31.274Z,3.00
2022-11-15T12:11:10.402Z,3.50
2022-11-15T12:13:37.654Z,4.00
2022-11-15T12:16:15.989Z,4.00
2022-11-15T12:18:49.785Z,4.25
2022-11-15T12:21:28.749Z,4.00
2022-11-15T12:24:05.677Z,4.00
2022-11-15T12:26:41.717Z,4.00
2022-11-15T12:29:26.700Z,4.00
2022-11-15T12:31:58.347Z,3.75
2022-11-15T12:34:43.997Z,3.00
2022-11-15T12:37:53.797Z,4.00
2022-11-15T12:40:25.263Z,3.50
2022-11-15T12:43:37.437Z,4.50
2022-11-15T12:46:11.141Z,5.00
2022-11-15T12:49:02.048Z,5.75
2022-11-15T12:52:07.912Z,3.75
2022-11-15T12:55:02.697Z,4.00
2022-11-15T12:57:44.424Z,3.25
2022-11-15T13:00:45.543Z,2.75
2022-11-15T13:03:56.561Z,4.00
2022-11-15T13:06:41.788Z,4.00
2022-11-15T13:10:04.251Z,4.75
2022-11-15T13:12:57.259Z,4.25
2022-11-15T13:15:56.496Z,3.75
2022-11-15T13:18:38.575Z,6.25
2022-11-15T13:21:21.462Z,6.00
2022-11-15T13:23:55.319Z,5.75
2022-11-15T13:26:23.345Z,6.25
2022-11-15T13:28:52.754Z,6.00
2022-11-15T13:31:29.082Z,6.25
2022-11-15T13:34:01.747Z,12.75
2022-11-15T13:36:32.752Z,5.25
2022-11-15T13:39:04.399Z,8.25
2022-11-15T13:41:34.398Z,6.00
2022-11-15T13:44:04.308Z,7.25
2022-11-15T13:46:33.430Z,7.75
2022-11-15T13:49:12.755Z,7.00
2022-11-15T13:51:50.328Z,8.00
2022-11-15T13:54:28.996Z,7.50
2022-11-15T13:57:03.327Z,7.25
2022-11-15T13:59:34.767Z,6.00
2022-11-15T14:02:13.231Z,8.25
2022-11-15T14:04:51.989Z,8.75
2022-11-15T14:07:25.716Z,6.00
2022-11-15T14:10:42.956Z,3.75
2022-11-15T14:13:31.851Z,6.75
2022-11-15T14:16:19.177Z,3.00
2022-11-15T14:18:49.895Z,4.00
2022-11-15T14:21:19.063Z,2.75
2022-11-15T14:23:46.616Z,3.00
2022-11-15T14:26:32.512Z,2.00
2022-11-15T14:29:23.159Z,2.50
2022-11-15T14:31:50.633Z,3.25
2022-11-15T14:34:17.575Z,2.50
2022-11-15T14:36:45.143Z,1.25
2022-11-15T14:39:12.110Z,3.00
2022-11-15T14:41:40.416Z,2.00
2022-11-15T14:44:10.397Z,2.75
2022-11-15T14:46:37.184Z,3.00
2022-11-15T14:49:03.953Z,2.25
2022-11-15T14:51:31.154Z,3.00
2022-11-15T14:53:57.913Z,2.50
2022-11-15T14:56:24.930Z,1.75
2022-11-15T14:58:55.303Z,2.00
2022-11-15T15:01:26.494Z,2.00
2022-11-15T15:03:54.281Z,1.75
2022-11-15T15:06:21.007Z,2.50
2022-11-15T15:08:48.023Z,3.00
2022-11-15T15:11:21.491Z,2.00
2022-11-15T15:13:48.701Z,2.00
2022-11-15T15:16:16.819Z,1.25
2022-11-15T15:18:43.513Z,2.50
2022-11-15T15:21:22.647Z,1.75
2022-11-15T15:23:49.930Z,2.00
2022-11-15T15:26:17.047Z,2.00
2022-11-15T15:28:43.889Z,2.00
2022-11-15T15:31:11.148Z,3.50
2022-11-15T15:33:39.240Z,2.25
2022-11-15T15:36:09.217Z,2.25
2022-11-15T15:38:36.441Z,3.75
2022-11-15T15:41:03.145Z,1.75
2022-11-15T15:43:30.926Z,2.00
2022-11-15T15:45:57.672Z,1.25
2022-11-15T15:48:24.423Z,0.50
2022-11-15T15:50:52.729Z,2.00
2022-11-15T15:53:19.484Z,1.75
2022-11-15T15:55:46.417Z,2.00
2022-11-15T15:58:13.101Z,1.00
2022-11-15T16:00:40.131Z,1.00
2022-11-15T16:03:07.104Z,2.00
2022-11-15T16:05:34.213Z,3.00
2022-11-15T16:08:02.608Z,1.75
2022-11-15T16:10:35.145Z,2.25
2022-11-15T16:13:02.213Z,4.75
2022-11-15T16:15:32.336Z,4.00
2022-11-15T16:18:01.695Z,2.50
2022-11-15T16:20:38.604Z,4.50
2022-11-15T16:23:09.868Z,6.00
2022-11-15T16:25:45.816Z,5.75
2022-11-15T16:28:22.917Z,7.50
2022-11-15T16:30:59.547Z,5.00
2022-11-15T16:33:26.354Z,11.33
2022-11-15T16:35:53.230Z,7.00
2022-11-15T16:38:21.990Z,2.50
2022-11-15T16:40:48.774Z,3.25
2022-11-15T16:43:15.835Z,3.25
2022-11-15T16:45:42.633Z,3.00
2022-11-15T16:48:23.101Z,7.00
2022-11-15T16:50:50.091Z,2.00
2022-11-15T16:53:17.811Z,3.50
2022-11-15T16:56:24.221Z,2.25
2022-11-15T16:59:07.186Z,3.25
2022-11-15T17:01:37.733Z,3.75
2022-11-15T17:04:06.581Z,3.50
2022-11-15T17:06:33.690Z,3.25
2022-11-15T17:09:01.731Z,4.50
2022-11-15T17:11:30.339Z,3.00
2022-11-15T17:13:58.341Z,3.50
2022-11-15T17:16:27.540Z,4.00
2022-11-15T17:18:54.576Z,4.50
2022-11-15T17:21:22.470Z,5.00
2022-11-15T17:23:49.895Z,12.00
2022-11-15T17:26:35.155Z,4.00
2022-11-15T17:29:06.074Z,10.33
2022-11-15T17:31:33.198Z,10.67
2022-11-15T17:34:01.368Z,9.50
2022-11-15T17:36:28.354Z,13.67
2022-11-15T17:38:59.496Z,10.67
2022-11-15T17:41:27.569Z,19.67
2022-11-15T17:43:56.885Z,15.67
2022-11-15T17:46:26.720Z,6.00
2022-11-15T17:48:56.062Z,6.00
2022-11-15T17:51:23.472Z,7.25
2022-11-15T17:53:50.441Z,2.00
2022-11-15T17:56:20.369Z,5.25
2022-11-15T17:58:49.058Z,5.00
2022-11-15T18:01:19.847Z,8.75
2022-11-15T18:03:52.974Z,13.33
2022-11-15T18:06:25.444Z,26.75
2022-11-15T18:09:04.672Z,12.00
2022-11-15T18:11:40.822Z,10.67
2022-11-15T18:14:12.866Z,15.67
2022-11-15T18:16:40.598Z,15.75
2022-11-15T18:19:11.950Z,11.33
2022-11-15T18:21:41.088Z,11.25
2022-11-15T18:24:08.382Z,11.50
2022-11-15T18:26:38.057Z,16.00
2022-11-15T18:29:05.062Z,13.75
2022-11-15T18:31:32.186Z,12.25
2022-11-15T18:34:00.618Z,8.50
2022-11-15T18:36:30.651Z,10.75
2022-11-15T18:39:00.750Z,9.75
2022-11-15T18:41:27.574Z,10.00
2022-11-15T18:43:55.193Z,6.00
2022-11-15T18:46:25.145Z,7.00
2022-11-15T18:48:54.613Z,11.00
2022-11-15T18:51:23.921Z,10.00
2022-11-15T18:53:55.179Z,12.50
2022-11-15T18:56:24.080Z,6.00
2022-11-15T18:58:54.738Z,10.75
2022-11-15T19:01:24.480Z,7.75
2022-11-15T19:03:53.861Z,9.50
2022-11-15T19:06:23.188Z,9.50
2022-11-15T19:08:55.046Z,7.75
2022-11-15T19:11:24.601Z,9.50
2022-11-15T19:13:54.522Z,5.50
2022-11-15T19:16:21.360Z,8.50
2022-11-15T19:18:52.253Z,12.25
2022-11-15T19:21:19.365Z,9.25
2022-11-15T19:23:46.048Z,8.50
2022-11-15T19:26:16.080Z,9.50
2022-11-15T19:28:44.190Z,11.50
2022-11-15T19:31:14.380Z,11.25
2022-11-15T19:33:44.253Z,9.50
2022-11-15T19:36:14.671Z,11.25
2022-11-15T19:38:42.756Z,11.25
2022-11-15T19:41:12.997Z,8.75
2022-11-15T19:43:42.288Z,9.25
2022-11-15T19:46:12.111Z,8.00
2022-11-15T19:48:39.166Z,7.50
2022-11-15T19:51:10.142Z,7.00
2022-11-15T19:53:38.053Z,10.50
2022-11-15T19:56:08.189Z,9.50
2022-11-15T19:58:35.011Z,11.25
2022-11-15T20:01:07.205Z,9.00
2022-11-15T20:03:36.726Z,11.00
2022-11-15T20:06:07.234Z,9.50
2022-11-15T20:08:35.307Z,9.00
2022-11-15T20:11:04.410Z,8.75
2022-11-15T20:13:32.660Z,8.25
2022-11-15T20:15:59.903Z,8.75
2022-11-15T20:18:30.342Z,8.25
2022-11-15T20:20:57.778Z,8.50
2022-11-15T20:23:25.228Z,7.75
2022-11-15T20:25:52.555Z,7.00
2022-11-15T20:28:28.751Z,7.33
2022-11-15T20:30:58.466Z,9.00
2022-11-15T20:33:28.712Z,6.67
2022-11-15T20:35:55.862Z,7.00
2022-11-15T20:38:23.100Z,5.33
2022-11-15T20:40:56.031Z,8.33
2022-11-15T20:43:28.361Z,8.33
2022-11-15T20:45:55.884Z,8.00
2022-11-15T20:48:23.100Z,10.75
2022-11-15T20:50:52.301Z,9.00
2022-11-15T20:53:20.462Z,9.67
2022-11-15T20:55:49.861Z,9.00
2022-11-15T20:58:17.854Z,9.67
2022-11-15T21:00:45.992Z,12.50
2022-11-15T21:03:14.262Z,12.25
2022-11-15T21:05:44.014Z,12.00
2022-11-15T21:08:12.936Z,12.50
2022-11-15T21:10:40.851Z,11.25
2022-11-15T21:13:07.703Z,10.33
2022-11-15T21:15:34.663Z,12.50
2022-11-15T21:18:01.835Z,12.25
2022-11-15T21:20:28.694Z,14.50
2022-11-15T21:22:55.939Z,12.25
2022-11-15T21:25:24.157Z,13.25
2022-11-15T21:27:52.612Z,15.25
2022-11-15T21:30:19.837Z,11.25
2022-11-15T21:32:46.711Z,12.75
2022-11-15T21:35:13.802Z,10.50
2022-11-15T21:37:44.647Z,12.50
2022-11-15T21:40:12.727Z,12.75
2022-11-15T21:42:40.800Z,12.25
2022-11-15T21:45:09.452Z,12.00
2022-11-15T21:47:36.233Z,12.33
2022-11-15T21:50:03.760Z,11.67
2022-11-15T21:52:30.557Z,7.75
2022-11-15T21:54:57.326Z,11.00
2022-11-15T21:57:24.138Z,12.25
2022-11-15T21:59:52.483Z,9.75
2022-11-15T22:02:19.231Z,8.33
2022-11-15T22:04:46.301Z,10.50
2022-11-15T22:07:13.046Z,9.25
2022-11-15T22:09:40.088Z,10.00
2022-11-15T22:12:06.899Z,12.25
2022-11-15T22:14:33.882Z,11.50
2022-11-15T22:17:02.319Z,10.00
2022-11-15T22:19:29.246Z,5.25
2022-11-15T22:21:56.076Z,14.75
2022-11-15T22:24:22.988Z,14.00
2022-11-15T22:26:49.794Z,15.00
2022-11-15T22:29:16.832Z,11.00
2022-11-15T22:31:43.639Z,11.00
2022-11-15T22:34:12.548Z,14.00
2022-11-15T22:37:05.428Z,11.33
2022-11-15T22:39:26.390Z,12.67
2022-11-15T22:41:53.325Z,8.00
2022-11-15T22:44:20.412Z,7.00
2022-11-15T22:46:47.223Z,10.33
2022-11-15T22:49:15.698Z,10.67
2022-11-15T22:51:42.470Z,9.00
2022-11-15T22:54:09.972Z,10.25
2022-11-15T22:56:36.832Z,11.00
2022-11-15T22:59:03.654Z,11.00
2022-11-15T23:01:30.504Z,12.25
2022-11-15T23:03:57.591Z,12.50
2022-11-15T23:06:25.840Z,11.75
2022-11-15T23:08:52.622Z,11.50
2022-11-15T23:11:19.465Z,10.75
2022-11-15T23:13:46.482Z,10.25
2022-11-15T23:16:13.522Z,12.50
2022-11-15T23:18:41.017Z,9.50
2022-11-15T23:21:09.627Z,11.75
2022-11-15T23:23:38.398Z,14.75
2022-11-15T23:26:05.772Z,11.75
2022-11-15T23:28:34.606Z,12.75
2022-11-15T23:31:07.248Z,13.50
2022-11-15T23:33:34.093Z,11.00
2022-11-15T23:36:01.029Z,10.25
2022-11-15T23:38:28.191Z,10.50
2022-11-15T23:40:56.351Z,9.25
2022-11-15T23:43:23.154Z,12.25
2022-11-15T23:45:50.025Z,11.75
2022-11-15T23:48:16.898Z,11.50
2022-11-15T23:50:46.621Z,12.25
2022-11-15T23:53:14.228Z,9.75
2022-11-15T23:55:41.481Z,10.25
2022-11-15T23:58:10.009Z,10.25
